Time;durP1;ratioP1;P1;durP2;ratioP2;P2;SDS_P1;SDS_P2;PMS_P1;PMS_P2;Temp;Humidity;BMP_temperature;BMP_pressure;BME280_temperature;BME280_humidity;BME280_pressure;Samples;Min_cycle;Max_cycle;Signal;HPM_P1;HPM_P2
2022/11/09 00:00:08;;;;;;;27.67;19.10;;;8.30;99.90;;;;;;5116924;28;20195;-74
2022/11/09 00:02:34;;;;;;;25.77;18.20;;;8.30;99.90;;;;;;5098652;28;20172;-72
2022/11/09 00:05:00;;;;;;;24.83;17.23;;;8.30;99.90;;;;;;5117362;28;20207;-72
2022/11/09 00:07:25;;;;;;;29.20;19.30;;;8.30;99.90;;;;;;5098479;28;20177;-73
2022/11/09 00:09:51;;;;;;;26.80;18.67;;;8.20;99.90;;;;;;5117190;28;20192;-74
2022/11/09 00:12:16;;;;;;;32.63;18.93;;;8.30;99.90;;;;;;5098487;28;20184;-72
2022/11/09 00:14:42;;;;;;;30.47;20.43;;;8.30;99.90;;;;;;5117208;28;20204;-73
2022/11/09 00:17:08;;;;;;;27.97;19.40;;;8.30;99.90;;;;;;5098484;28;20187;-74
2022/11/09 00:19:33;;;;;;;30.37;20.00;;;8.30;99.90;;;;;;5116937;28;20655;-72
2022/11/09 00:21:59;;;;;;;27.17;18.27;;;8.30;99.90;;;;;;5098403;28;20560;-73
2022/11/09 00:24:24;;;;;;;27.57;19.40;;;8.30;99.90;;;;;;5116402;28;20235;-74
2022/11/09 00:26:50;;;;;;;33.93;20.20;;;8.30;99.90;;;;;;5116506;28;20248;-74
2022/11/09 00:29:16;;;;;;;31.40;19.57;;;8.30;99.90;;;;;;5098241;28;20229;-73
2022/11/09 00:31:42;;;;;;;28.80;18.40;;;8.30;99.90;;;;;;5098095;28;20237;-73
2022/11/09 00:34:07;;;;;;;34.75;21.40;;;8.30;99.90;;;;;;5116451;28;20635;-73
2022/11/09 00:36:33;;;;;;;32.80;20.83;;;8.30;99.90;;;;;;5116336;28;20179;-73
2022/11/09 00:38:59;;;;;;;31.40;20.27;;;8.30;99.90;;;;;;5098031;28;20183;-73
2022/11/09 00:41:26;;;;;;;32.78;20.77;;;8.30;99.90;;;;;;5116117;28;20615;-73
2022/11/09 00:43:52;;;;;;;27.67;18.15;;;8.30;99.90;;;;;;5097961;28;20184;-74
2022/11/09 00:46:18;;;;;;;31.13;18.90;;;8.30;99.90;;;;;;5115616;28;20332;-73
2022/11/09 00:48:45;;;;;;;31.38;19.60;;;8.30;99.90;;;;;;5115900;28;20168;-73
2022/11/09 00:51:11;;;;;;;27.27;19.30;;;8.30;99.90;;;;;;5097432;28;20212;-73
2022/11/09 00:53:37;;;;;;;27.83;19.20;;;8.30;99.90;;;;;;5097846;28;20176;-73
2022/11/09 00:56:12;;;;;;;30.70;18.67;;;8.20;99.90;;;;;;5097593;28;20199;-73
2022/11/09 00:58:39;;;;;;;32.45;17.75;;;8.30;99.90;;;;;;5116165;28;20957;-73
2022/11/09 01:01:14;;;;;;;35.03;18.17;;;8.20;99.90;;;;;;5096660;28;20200;-74
2022/11/09 01:03:40;;;;;;;34.13;18.92;;;8.20;99.90;;;;;;5116055;28;20562;-72
2022/11/09 01:06:06;;;;;;;29.47;19.50;;;8.20;99.90;;;;;;5097347;28;20203;-73
2022/11/09 01:08:33;;;;;;;26.75;18.25;;;8.20;99.90;;;;;;5115874;28;20493;-73
2022/11/09 01:11:04;;;;;;;25.45;18.67;;;8.20;99.90;;;;;;5097155;28;20219;-73
2022/11/09 01:13:30;;;;;;;40.75;19.00;;;8.20;99.90;;;;;;5115798;28;20171;-73
2022/11/09 01:15:56;;;;;;;41.00;18.40;;;8.20;99.90;;;;;;5097257;28;20560;-73
2022/11/09 01:18:22;;;;;;;36.20;20.00;;;8.20;99.90;;;;;;5115536;28;20183;-73
2022/11/09 01:20:48;;;;;;;38.27;20.80;;;8.20;99.90;;;;;;5115384;28;20192;-73
2022/11/09 01:23:16;;;;;;;33.25;20.55;;;8.20;99.90;;;;;;5097048;28;20233;-73
2022/11/09 01:25:42;;;;;;;36.95;18.73;;;8.20;99.90;;;;;;5115310;28;20283;-74
2022/11/09 01:28:09;;;;;;;29.90;18.67;;;8.30;99.90;;;;;;5115366;28;20651;-73
2022/11/09 01:30:37;;;;;;;36.58;18.60;;;8.30;99.90;;;;;;5115119;28;20991;-74
2022/11/09 01:33:07;;;;;;;35.90;21.85;;;8.30;99.90;;;;;;5096959;28;20257;-73
2022/11/09 01:35:37;;;;;;;32.78;20.90;;;8.30;99.90;;;;;;5115229;28;20203;-73
2022/11/09 01:38:05;;;;;;;46.13;22.27;;;8.30;99.90;;;;;;5096930;28;20176;-74
2022/11/09 01:40:32;;;;;;;38.90;21.17;;;8.40;99.90;;;;;;5114987;28;20203;-73
2022/11/09 01:42:58;;;;;;;39.00;23.30;;;8.40;99.90;;;;;;5096770;28;20172;-73
2022/11/09 01:45:27;;;;;;;43.45;23.73;;;8.50;99.90;;;;;;5114837;28;20270;-72
2022/11/09 01:48:04;;;;;;;43.55;23.77;;;8.50;99.90;;;;;;5114944;28;20572;-73
2022/11/09 01:50:42;;;;;;;56.13;24.52;;;8.50;99.90;;;;;;5096614;28;20611;-73
2022/11/09 01:53:16;;;;;;;49.47;25.25;;;8.60;99.90;;;;;;5114846;28;20168;-73
2022/11/09 01:55:44;;;;;;;40.78;24.88;;;8.60;99.90;;;;;;5096552;28;20205;-73
2022/11/09 01:58:16;;;;;;;48.90;25.17;;;8.70;99.90;;;;;;5113999;28;20203;-74
2022/11/09 02:00:45;;;;;;;47.25;23.15;;;8.70;99.90;;;;;;5114783;28;20194;-73
2022/11/09 02:03:20;;;;;;;40.13;24.15;;;8.70;99.90;;;;;;5114693;28;20270;-72
2022/11/09 02:05:47;;;;;;;32.50;20.73;;;8.70;99.90;;;;;;5096474;28;20202;-73
2022/11/09 02:08:15;;;;;;;32.58;19.10;;;8.80;99.90;;;;;;5096284;28;20586;-73
2022/11/09 02:11:15;;;;;;;30.27;19.08;;;8.80;99.90;;;;;;5096205;28;20250;-74
2022/11/09 02:13:45;;;;;;;47.88;18.88;;;8.80;99.90;;;;;;5114739;28;20624;-73
2022/11/09 02:16:13;;;;;;;37.70;18.98;;;8.80;99.90;;;;;;5114429;28;20200;-73
2022/11/09 02:18:48;;;;;;;30.17;17.65;;;8.80;99.90;;;;;;5096253;28;20182;-72
2022/11/09 02:21:14;;;;;;;36.70;18.83;;;8.80;99.90;;;;;;5096159;28;20199;-74
2022/11/09 02:23:39;;;;;;;39.67;19.53;;;8.90;99.90;;;;;;5114388;28;20231;-73
2022/11/09 02:26:12;;;;;;;33.57;18.30;;;8.90;99.90;;;;;;5114290;28;20235;-73
2022/11/09 02:28:39;;;;;;;28.20;19.27;;;8.90;99.90;;;;;;5096283;28;20624;-73
2022/11/09 02:31:09;;;;;;;30.10;19.70;;;8.90;99.90;;;;;;5095766;28;20212;-73
2022/11/09 02:34:01;;;;;;;36.55;19.38;;;8.90;99.90;;;;;;5096088;28;20660;-73
2022/11/09 02:36:26;;;;;;;38.13;20.60;;;8.90;99.90;;;;;;5114223;28;20171;-74
2022/11/09 02:38:54;;;;;;;32.53;20.10;;;9.00;99.90;;;;;;5114388;28;20214;-73
2022/11/09 02:41:21;;;;;;;37.28;19.80;;;9.00;99.90;;;;;;5095839;28;20196;-73
2022/11/09 02:43:49;;;;;;;41.78;22.00;;;9.00;99.90;;;;;;5114414;28;20305;-73
2022/11/09 02:46:28;;;;;;;33.30;19.77;;;9.00;99.90;;;;;;5114015;28;20195;-73
2022/11/09 02:48:54;;;;;;;33.38;20.00;;;9.00;99.90;;;;;;5095999;28;20179;-73
2022/11/09 02:51:19;;;;;;;34.67;20.33;;;9.00;99.90;;;;;;5095650;28;20216;-73
2022/11/09 02:53:45;;;;;;;35.93;19.73;;;9.00;99.90;;;;;;5095749;28;20180;-73
2022/11/09 02:56:11;;;;;;;37.20;22.40;;;9.00;99.90;;;;;;5114012;28;20288;-72
2022/11/09 02:58:36;;;;;;;40.90;21.30;;;9.00;99.90;;;;;;5114182;28;20182;-73
2022/11/09 03:01:02;;;;;;;41.37;19.40;;;9.00;99.90;;;;;;5113980;28;20703;-73
2022/11/09 03:03:28;;;;;;;34.77;18.40;;;9.00;99.90;;;;;;5114182;28;20236;-74
2022/11/09 03:05:53;;;;;;;38.53;20.00;;;9.00;99.90;;;;;;5095602;28;20715;-73
2022/11/09 03:08:19;;;;;;;29.70;18.80;;;9.00;99.90;;;;;;5095602;28;20236;-72
2022/11/09 03:10:45;;;;;;;34.80;19.57;;;9.00;99.90;;;;;;5117364;28;20217;-73
2022/11/09 03:13:10;;;;;;;35.53;18.13;;;9.00;99.90;;;;;;5099591;28;20183;-74
2022/11/09 03:15:37;;;;;;;33.50;19.87;;;9.00;99.90;;;;;;5099578;28;20245;-73
2022/11/09 03:18:03;;;;;;;64.53;27.10;;;9.00;99.90;;;;;;5099540;28;20214;-74
2022/11/09 03:20:28;;;;;;;42.07;21.73;;;9.00;99.90;;;;;;5099503;28;20621;-74
2022/11/09 03:22:58;;;;;;;42.17;21.80;;;9.00;99.90;;;;;;5117705;28;20254;-73
2022/11/09 03:25:25;;;;;;;38.67;21.40;;;8.90;99.90;;;;;;5099167;28;20318;-73
2022/11/09 03:27:59;;;;;;;56.25;21.75;;;8.90;99.90;;;;;;5117602;28;20240;-73
2022/11/09 03:30:25;;;;;;;37.10;22.27;;;8.90;99.90;;;;;;5099128;28;20247;-72
2022/11/09 03:32:55;;;;;;;34.30;20.70;;;8.90;99.90;;;;;;5099263;28;20179;-73
2022/11/09 03:35:21;;;;;;;38.05;19.90;;;8.90;99.90;;;;;;5117382;28;20192;-73
2022/11/09 03:37:47;;;;;;;39.13;20.97;;;8.90;99.90;;;;;;5099235;28;20179;-74
2022/11/09 03:40:12;;;;;;;38.00;20.00;;;8.90;99.90;;;;;;5117424;28;20265;-73
2022/11/09 03:42:43;;;;;;;38.87;19.20;;;8.90;99.90;;;;;;5117452;28;20214;-73
2022/11/09 03:45:09;;;;;;;37.05;19.77;;;8.90;99.90;;;;;;5099088;28;20680;-74
2022/11/09 03:47:34;;;;;;;33.30;17.73;;;8.90;99.90;;;;;;5099335;28;20182;-73
2022/11/09 03:50:00;;;;;;;49.23;18.20;;;8.90;99.90;;;;;;5098982;28;20426;-73
2022/11/09 03:52:26;;;;;;;31.70;17.70;;;8.90;99.90;;;;;;5098941;28;20175;-74
2022/11/09 03:54:51;;;;;;;36.27;20.37;;;8.90;99.90;;;;;;5117527;28;20196;-73
2022/11/09 03:57:17;;;;;;;44.67;18.80;;;8.90;99.90;;;;;;5098771;28;20191;-73
2022/11/09 03:59:42;;;;;;;36.87;16.40;;;8.90;99.90;;;;;;5098952;28;20200;-73
2022/11/09 04:02:08;;;;;;;34.00;17.63;;;8.90;99.90;;;;;;5098700;28;20183;-73
2022/11/09 04:04:34;;;;;;;31.17;18.47;;;8.90;99.90;;;;;;5117317;28;20235;-73
2022/11/09 04:06:59;;;;;;;29.90;15.30;;;8.90;99.90;;;;;;5098815;28;20655;-73
2022/11/09 04:09:25;;;;;;;29.83;16.80;;;8.90;99.90;;;;;;5098688;28;20656;-72
2022/11/09 04:11:50;;;;;;;27.93;17.00;;;8.80;99.90;;;;;;5116749;28;20213;-73
2022/11/09 04:14:16;;;;;;;36.87;16.73;;;8.80;99.90;;;;;;5098687;28;20179;-72
2022/11/09 04:16:41;;;;;;;28.57;14.73;;;8.80;99.90;;;;;;5116742;28;20175;-72
2022/11/09 04:19:07;;;;;;;31.70;16.50;;;8.80;99.90;;;;;;5116364;28;20183;-73
2022/11/09 04:21:33;;;;;;;27.83;16.90;;;8.80;99.90;;;;;;5115875;28;20183;-72
2022/11/09 04:23:58;;;;;;;24.57;14.40;;;8.80;99.90;;;;;;5098312;28;20326;-73
2022/11/09 04:26:24;;;;;;;30.00;17.20;;;8.80;99.90;;;;;;5116431;28;20199;-73
2022/11/09 04:28:49;;;;;;;31.30;16.80;;;8.80;99.90;;;;;;5098437;28;20180;-73
2022/11/09 04:31:15;;;;;;;32.53;20.63;;;8.80;99.90;;;;;;5116334;28;20290;-73
2022/11/09 04:33:41;;;;;;;29.50;17.70;;;8.80;99.90;;;;;;5098146;28;20535;-73
2022/11/09 04:36:07;;;;;;;34.53;15.53;;;8.90;99.90;;;;;;5098105;28;20207;-73
2022/11/09 04:38:33;;;;;;;25.83;14.35;;;8.90;99.90;;;;;;5098212;28;20175;-73
2022/11/09 04:41:03;;;;;;;26.33;15.80;;;8.90;99.90;;;;;;5098007;28;20200;-72
2022/11/09 04:43:29;;;;;;;33.58;15.05;;;8.90;99.90;;;;;;5116388;28;20428;-72
2022/11/09 04:45:57;;;;;;;28.00;16.60;;;8.90;99.90;;;;;;5097878;28;20283;-72
2022/11/09 04:48:23;;;;;;;28.77;13.70;;;9.00;99.90;;;;;;5116017;28;20160;-73
2022/11/09 04:50:49;;;;;;;27.90;15.33;;;9.00;99.90;;;;;;5097513;28;20234;-72
2022/11/09 04:53:14;;;;;;;34.07;14.80;;;9.00;99.90;;;;;;5097753;28;20691;-72
2022/11/09 04:55:41;;;;;;;26.40;13.83;;;9.00;99.90;;;;;;5097595;28;20758;-72
2022/11/09 04:58:07;;;;;;;31.02;15.93;;;9.00;99.90;;;;;;5093494;28;20640;-71
2022/11/09 05:00:33;;;;;;;35.78;16.35;;;9.00;99.90;;;;;;5078587;28;20214;-72
2022/11/09 05:03:03;;;;;;;27.63;16.25;;;9.00;99.90;;;;;;5108106;28;20183;-73
2022/11/09 05:05:29;;;;;;;38.08;17.55;;;9.00;99.90;;;;;;5104692;28;20279;-72
2022/11/09 05:07:55;;;;;;;26.63;14.77;;;9.00;99.90;;;;;;5112023;28;20270;-73
2022/11/09 05:10:20;;;;;;;30.23;14.17;;;9.00;99.90;;;;;;5095089;28;20346;-72
2022/11/09 05:12:46;;;;;;;29.47;14.43;;;9.00;99.90;;;;;;5076969;28;20645;-72
2022/11/09 05:15:12;;;;;;;44.17;20.13;;;9.00;99.90;;;;;;5095085;28;20193;-72
2022/11/09 05:17:37;;;;;;;45.13;18.43;;;9.10;99.90;;;;;;5095253;28;20251;-71
2022/11/09 05:20:03;;;;;;;47.60;22.50;;;9.00;99.90;;;;;;5080550;28;20200;-72
2022/11/09 05:25:13;;;;;;;27.60;16.77;;;9.00;99.90;;;;;;5098036;28;20525;-72
2022/11/09 05:27:39;;;;;;;24.57;15.10;;;9.00;99.90;;;;;;5115186;28;20172;-72
2022/11/09 05:30:05;;;;;;;28.30;13.67;;;9.00;99.90;;;;;;5097685;28;20200;-72
2022/11/09 05:32:31;;;;;;;24.05;14.23;;;9.10;99.90;;;;;;5108621;28;20608;-72
2022/11/09 05:34:56;;;;;;;20.60;13.93;;;9.10;99.90;;;;;;5083956;28;20290;-72
2022/11/09 05:37:22;;;;;;;24.00;13.77;;;9.10;99.90;;;;;;5077891;28;20177;-73
2022/11/09 05:39:48;;;;;;;25.80;14.30;;;9.10;99.90;;;;;;5091634;28;20196;-72
2022/11/09 05:42:13;;;;;;;24.83;13.70;;;9.10;99.90;;;;;;5095003;28;20187;-72
2022/11/09 05:44:39;;;;;;;23.20;14.53;;;9.10;99.90;;;;;;5095489;28;20227;-72
2022/11/09 05:47:05;;;;;;;22.83;12.80;;;9.10;99.90;;;;;;5114884;28;20176;-72
2022/11/09 05:49:30;;;;;;;26.13;14.10;;;9.10;99.90;;;;;;5114830;28;20256;-72
2022/11/09 05:51:56;;;;;;;35.33;17.40;;;9.10;99.90;;;;;;5114920;28;20215;-72
2022/11/09 05:54:21;;;;;;;22.30;16.10;;;9.10;99.90;;;;;;5096463;28;20664;-72
2022/11/09 05:56:47;;;;;;;23.03;13.93;;;9.10;99.90;;;;;;5114540;28;20337;-73
2022/11/09 05:59:13;;;;;;;25.37;15.00;;;9.10;99.90;;;;;;5113285;28;20190;-72
2022/11/09 06:01:38;;;;;;;22.83;13.27;;;9.10;99.90;;;;;;5095829;28;20648;-72
2022/11/09 06:04:04;;;;;;;26.70;12.63;;;9.10;99.90;;;;;;5108331;28;20187;-72
2022/11/09 06:06:29;;;;;;;27.17;13.77;;;9.00;99.90;;;;;;5104652;28;20705;-72
2022/11/09 06:08:55;;;;;;;25.03;14.73;;;9.00;99.90;;;;;;5103912;28;20183;-72
2022/11/09 06:11:21;;;;;;;27.37;14.20;;;9.00;99.90;;;;;;5096101;28;20227;-72
2022/11/09 06:13:47;;;;;;;24.80;12.90;;;9.00;99.90;;;;;;5109065;28;20633;-72
2022/11/09 06:16:12;;;;;;;27.27;14.77;;;9.00;99.90;;;;;;5089348;28;20659;-71
2022/11/09 06:18:38;;;;;;;21.23;13.10;;;9.00;99.90;;;;;;5093407;28;20172;-71
2022/11/09 06:21:04;;;;;;;28.97;15.37;;;9.00;99.90;;;;;;5094812;28;20211;-73
2022/11/09 06:23:32;;;;;;;27.77;15.20;;;9.00;99.90;;;;;;5083221;28;20187;-72
2022/11/09 06:25:58;;;;;;;31.60;14.10;;;9.00;99.90;;;;;;5093408;28;20243;-72
2022/11/09 06:28:24;;;;;;;29.00;14.68;;;9.00;99.90;;;;;;5091148;28;20215;-71
2022/11/09 06:30:51;;;;;;;35.03;14.97;;;9.10;99.90;;;;;;5111271;28;20258;-72
2022/11/09 06:33:16;;;;;;;40.10;13.60;;;9.10;99.90;;;;;;5088664;28;20424;-72
2022/11/09 06:35:45;;;;;;;53.67;17.93;;;9.10;99.90;;;;;;5087555;28;20237;-71
2022/11/09 06:38:10;;;;;;;40.20;20.70;;;9.10;99.90;;;;;;5100160;28;20263;-71
2022/11/09 06:40:36;;;;;;;39.77;19.87;;;9.10;99.90;;;;;;5105980;28;20199;-72
2022/11/09 06:43:02;;;;;;;29.80;15.57;;;9.10;99.90;;;;;;5110282;28;20203;-73
2022/11/09 06:45:29;;;;;;;31.30;16.67;;;9.10;99.90;;;;;;5110970;28;20215;-73
2022/11/09 06:48:00;;;;;;;29.77;18.00;;;9.00;99.90;;;;;;5093860;28;20176;-73
2022/11/09 06:50:28;;;;;;;33.08;15.85;;;9.00;99.90;;;;;;5109503;28;20215;-72
2022/11/09 06:53:02;;;;;;;37.10;14.75;;;9.00;99.90;;;;;;5111957;28;20167;-71
2022/11/09 06:55:29;;;;;;;31.50;16.48;;;9.00;99.90;;;;;;5111087;28;20439;-72
2022/11/09 06:57:55;;;;;;;31.85;16.55;;;9.00;99.90;;;;;;5101941;28;20188;-72
2022/11/09 07:00:22;;;;;;;28.42;14.80;;;9.00;99.90;;;;;;5087873;28;20467;-72
2022/11/09 07:02:48;;;;;;;35.15;18.20;;;9.00;99.90;;;;;;5102398;28;20209;-72
2022/11/09 07:05:13;;;;;;;37.50;16.73;;;9.00;99.90;;;;;;5097513;28;20204;-72
2022/11/09 07:07:39;;;;;;;27.40;15.33;;;9.10;99.90;;;;;;5089595;28;20229;-71
2022/11/09 07:10:05;;;;;;;26.87;15.13;;;9.10;99.90;;;;;;5086158;28;20427;-71
2022/11/09 07:12:32;;;;;;;31.23;17.33;;;9.10;99.90;;;;;;5101734;28;20425;-71
2022/11/09 07:14:57;;;;;;;27.25;15.45;;;9.10;99.90;;;;;;5087425;28;20453;-72
2022/11/09 07:17:23;;;;;;;35.10;17.50;;;9.20;99.90;;;;;;5084105;28;20207;-73
2022/11/09 07:19:49;;;;;;;38.80;17.60;;;9.20;99.90;;;;;;5104357;28;20211;-72
2022/11/09 07:22:15;;;;;;;39.55;17.48;;;9.10;99.90;;;;;;5106380;28;20242;-73
2022/11/09 07:24:41;;;;;;;37.85;18.70;;;9.20;99.90;;;;;;5108944;28;20227;-71
2022/11/09 07:27:07;;;;;;;42.63;16.80;;;9.10;99.90;;;;;;5103988;28;20246;-71
2022/11/09 07:29:32;;;;;;;35.30;16.47;;;9.10;99.90;;;;;;5089834;28;20537;-71
2022/11/09 07:31:58;;;;;;;31.57;17.20;;;9.10;99.90;;;;;;5107596;28;20474;-70
2022/11/09 07:34:24;;;;;;;41.33;16.90;;;9.10;99.90;;;;;;5109134;28;20218;-74
2022/11/09 07:36:53;;;;;;;31.47;17.50;;;9.10;99.90;;;;;;5109622;28;20183;-72
2022/11/09 07:39:18;;;;;;;40.03;19.58;;;9.10;99.90;;;;;;5089728;28;20215;-75
2022/11/09 07:41:47;;;;;;;35.37;19.43;;;9.10;99.90;;;;;;5092490;28;20211;-72
2022/11/09 07:44:17;;;;;;;39.15;21.00;;;9.10;99.90;;;;;;5088991;28;20428;-72
2022/11/09 07:46:43;;;;;;;36.92;19.45;;;9.20;99.90;;;;;;5110532;28;20180;-71
2022/11/09 07:49:08;;;;;;;48.15;18.70;;;9.30;99.90;;;;;;5093452;28;20184;-72
2022/11/09 07:51:35;;;;;;;40.37;18.70;;;9.30;99.90;;;;;;5113374;28;20227;-71
2022/11/09 07:54:00;;;;;;;39.60;21.45;;;9.30;99.90;;;;;;5093750;28;20282;-72
2022/11/09 07:56:26;;;;;;;48.07;19.73;;;9.30;99.90;;;;;;5092826;28;20631;-71
2022/11/09 07:58:51;;;;;;;44.60;21.63;;;9.30;99.90;;;;;;5093875;28;20211;-71
2022/11/09 08:01:17;;;;;;;45.40;20.47;;;9.30;99.90;;;;;;5093158;28;20195;-71
2022/11/09 08:03:43;;;;;;;48.70;21.83;;;9.30;99.90;;;;;;5095826;28;20211;-71
2022/11/09 08:06:08;;;;;;;50.37;22.67;;;9.30;99.90;;;;;;5114535;28;20227;-72
2022/11/09 08:08:34;;;;;;;41.77;22.50;;;9.30;99.90;;;;;;5114317;28;20168;-73
2022/11/09 08:10:59;;;;;;;57.90;25.97;;;9.30;99.90;;;;;;5094607;28;20260;-72
2022/11/09 08:13:25;;;;;;;47.03;25.70;;;9.30;99.90;;;;;;5091696;28;20313;-71
2022/11/09 08:15:51;;;;;;;55.23;24.67;;;9.40;99.90;;;;;;5103920;28;20236;-71
2022/11/09 08:18:19;;;;;;;60.83;26.67;;;9.40;99.90;;;;;;5092374;28;20228;-72
2022/11/09 08:20:45;;;;;;;58.70;26.52;;;9.40;99.90;;;;;;5089754;28;20569;-72
2022/11/09 08:23:12;;;;;;;57.67;26.70;;;9.50;99.90;;;;;;5110853;28;20258;-71
2022/11/09 08:25:38;;;;;;;63.75;26.92;;;9.60;99.90;;;;;;5093206;28;20486;-72
2022/11/09 08:28:04;;;;;;;60.50;26.63;;;9.60;99.90;;;;;;5112666;28;20203;-71
2022/11/09 08:30:30;;;;;;;69.82;27.95;;;9.60;99.90;;;;;;5094016;28;20590;-71
2022/11/09 08:32:58;;;;;;;56.88;27.00;;;9.70;99.90;;;;;;5112633;28;20176;-72
2022/11/09 08:35:24;;;;;;;70.15;29.73;;;9.70;99.90;;;;;;5090847;28;20204;-72
2022/11/09 08:37:51;;;;;;;61.63;30.08;;;9.70;99.90;;;;;;5093973;28;20270;-71
2022/11/09 08:40:19;;;;;;;74.65;31.70;;;9.80;99.90;;;;;;5086078;28;20212;-72
2022/11/09 08:42:45;;;;;;;70.05;29.40;;;9.80;99.90;;;;;;5102404;28;20180;-73
2022/11/09 08:45:11;;;;;;;84.10;33.72;;;9.80;99.90;;;;;;5095179;28;20295;-72
2022/11/09 08:47:37;;;;;;;67.00;31.77;;;9.80;99.90;;;;;;5094827;28;20594;-72
2022/11/09 08:50:04;;;;;;;71.72;32.10;;;9.80;99.90;;;;;;5111802;28;20179;-71
2022/11/09 08:52:30;;;;;;;81.22;34.78;;;9.80;99.90;;;;;;5112615;28;20180;-73
2022/11/09 08:54:56;;;;;;;69.05;30.40;;;9.90;99.90;;;;;;5112386;28;20203;-73
2022/11/09 08:57:21;;;;;;;70.73;33.27;;;9.80;99.90;;;;;;5095091;28;20176;-71
2022/11/09 08:59:47;;;;;;;61.80;31.60;;;9.90;99.90;;;;;;5111023;28;20238;-73
2022/11/09 09:02:13;;;;;;;62.13;30.40;;;9.90;99.90;;;;;;5111455;28;20190;-72
2022/11/09 09:04:39;;;;;;;69.25;31.25;;;10.00;99.90;;;;;;5111553;28;20393;-72
2022/11/09 09:07:05;;;;;;;67.57;29.10;;;10.00;99.90;;;;;;5110412;28;20183;-73
2022/11/09 09:09:31;;;;;;;68.57;33.53;;;10.00;99.90;;;;;;5093990;28;20452;-72
2022/11/09 09:11:57;;;;;;;62.47;30.93;;;10.10;99.90;;;;;;5113303;28;20798;-72
2022/11/09 09:14:23;;;;;;;63.47;29.20;;;10.00;99.90;;;;;;5114932;28;20264;-73
2022/11/09 09:16:49;;;;;;;61.17;29.52;;;10.00;99.90;;;;;;5091154;28;20191;-72
2022/11/09 09:19:15;;;;;;;67.37;31.17;;;10.00;99.90;;;;;;5113823;28;20179;-72
2022/11/09 09:21:40;;;;;;;67.10;31.03;;;10.00;99.90;;;;;;5113398;28;20184;-72
2022/11/09 09:24:06;;;;;;;67.07;31.03;;;10.00;99.90;;;;;;5094783;28;20227;-72
2022/11/09 09:26:32;;;;;;;63.30;30.07;;;10.00;99.90;;;;;;5113316;28;20221;-72
2022/11/09 09:28:57;;;;;;;69.40;32.23;;;10.00;99.90;;;;;;5090887;28;20180;-72
2022/11/09 09:31:23;;;;;;;74.10;31.50;;;10.00;99.90;;;;;;5107047;28;20215;-73
2022/11/09 09:33:50;;;;;;;69.73;30.80;;;10.00;99.90;;;;;;5112022;27;20599;-72
2022/11/09 09:36:18;;;;;;;68.00;29.48;;;10.00;99.90;;;;;;5093235;28;20204;-73
2022/11/09 09:38:44;;;;;;;77.32;35.60;;;10.00;99.90;;;;;;5114771;28;20184;-72
2022/11/09 09:41:29;;;;;;;75.67;33.87;;;10.10;99.90;;;;;;5095615;28;20212;-72
2022/11/09 09:43:59;;;;;;;80.18;34.40;;;10.10;99.90;;;;;;5113659;28;20324;-72
2022/11/09 09:46:31;;;;;;;72.22;36.35;;;10.20;99.90;;;;;;5094253;28;20199;-72
2022/11/09 09:49:06;;;;;;;92.70;37.88;;;10.20;99.90;;;;;;5111792;28;20180;-72
2022/11/09 09:51:55;;;;;;;77.53;37.22;;;10.30;99.90;;;;;;5112318;28;20190;-72
2022/11/09 09:54:29;;;;;;;78.00;34.63;;;10.30;99.90;;;;;;5094690;28;20200;-73
2022/11/09 09:56:58;;;;;;;78.50;36.40;;;10.30;99.90;;;;;;5108205;28;20529;-73
2022/11/09 09:59:39;;;;;;;79.18;37.75;;;10.40;99.90;;;;;;5091210;28;20196;-73
2022/11/09 10:02:25;;;;;;;76.72;36.05;;;10.40;99.90;;;;;;5081587;28;20206;-72
2022/11/09 10:04:57;;;;;;;76.10;37.20;;;10.50;99.90;;;;;;5082751;28;20196;-72
2022/11/09 10:07:47;;;;;;;61.67;32.05;;;10.50;99.90;;;;;;5103160;28;20188;-72
2022/11/09 10:10:30;;;;;;;80.00;38.67;;;10.60;99.90;;;;;;5092068;28;20204;-72
2022/11/09 10:13:15;;;;;;;85.63;38.58;;;10.60;99.90;;;;;;5109434;27;20699;-72
2022/11/09 10:16:00;;;;;;;88.78;39.35;;;10.70;99.90;;;;;;5071688;28;20208;-73
2022/11/09 10:18:26;;;;;;;78.90;38.90;;;10.70;99.90;;;;;;5106993;28;20180;-73
2022/11/09 10:21:03;;;;;;;77.90;39.10;;;10.80;99.90;;;;;;5088413;28;20569;-73
2022/11/09 10:23:50;;;;;;;78.88;35.22;;;10.80;99.90;;;;;;5092872;28;20644;-73
2022/11/09 10:26:38;;;;;;;80.07;39.00;;;10.90;99.90;;;;;;5098078;28;20812;-72
2022/11/09 10:29:38;;;;;;;82.38;39.58;;;11.00;99.90;;;;;;5101139;28;20549;-72
2022/11/09 10:32:33;;;;;;;83.75;39.45;;;11.00;99.90;;;;;;5085381;28;20431;-73
2022/11/09 10:35:20;;;;;;;77.18;39.53;;;11.10;99.90;;;;;;5064372;28;20211;-72
2022/11/09 10:37:51;;;;;;;82.22;41.40;;;11.20;99.90;;;;;;5103070;28;20187;-72
2022/11/09 10:40:29;;;;;;;81.90;40.10;;;11.20;99.90;;;;;;5103176;28;20488;-73
2022/11/09 10:43:00;;;;;;;82.18;40.72;;;11.30;99.90;;;;;;5089188;28;20416;-73
2022/11/09 10:45:37;;;;;;;87.93;40.40;;;11.30;99.90;;;;;;5087513;28;20207;-73
2022/11/09 10:48:05;;;;;;;82.17;40.33;;;11.30;99.90;;;;;;5086123;28;20870;-73
2022/11/09 10:50:33;;;;;;;77.03;37.50;;;11.40;99.90;;;;;;5098038;28;20467;-73
2022/11/09 10:53:10;;;;;;;82.93;42.28;;;11.50;99.90;;;;;;5097740;28;20682;-72
2022/11/09 10:55:35;;;;;;;80.22;40.63;;;11.50;99.90;;;;;;5086968;28;20212;-72
2022/11/09 10:58:26;;;;;;;293.33;149.47;;;11.60;99.90;;;;;;5110339;28;20163;-73
2022/11/09 11:01:13;;;;;;;92.70;42.35;;;11.70;99.90;;;;;;5098287;28;20219;-73
2022/11/09 11:03:40;;;;;;;87.20;39.42;;;11.70;99.90;;;;;;5107166;28;20183;-72
2022/11/09 11:06:14;;;;;;;75.30;35.80;;;11.80;99.90;;;;;;5093134;28;20219;-73
2022/11/09 11:08:42;;;;;;;69.03;36.30;;;11.90;99.90;;;;;;5112077;28;20420;-74
2022/11/09 11:11:36;;;;;;;72.27;36.80;;;12.00;99.90;;;;;;5090901;28;21180;-72
2022/11/09 11:14:40;;;;;;;77.77;37.63;;;12.00;99.90;;;;;;5090072;28;20439;-73
2022/11/09 11:17:20;;;;;;;79.63;36.40;;;12.10;99.90;;;;;;5068954;28;20803;-72
2022/11/09 11:19:46;;;;;;;83.87;38.90;;;12.10;99.90;;;;;;5091381;28;20456;-73
2022/11/09 11:22:13;;;;;;;86.03;38.10;;;12.10;99.90;;;;;;5110982;28;20412;-73
2022/11/09 11:24:59;;;;;;;73.97;36.30;;;12.20;99.90;;;;;;5108084;28;20898;-73
2022/11/09 11:27:50;;;;;;;87.03;39.50;;;12.30;99.90;;;;;;5086780;28;20890;-72
2022/11/09 11:30:41;;;;;;;81.87;39.03;;;12.40;99.90;;;;;;5102381;28;20455;-73
2022/11/09 11:33:23;;;;;;;75.67;40.13;;;12.40;99.90;;;;;;5107765;28;20436;-72
2022/11/09 11:35:54;;;;;;;74.07;35.53;;;12.50;99.90;;;;;;5109752;28;21028;-72
2022/11/09 11:38:26;;;;;;;76.17;37.10;;;12.50;99.90;;;;;;5106066;28;20497;-72
2022/11/09 11:41:25;;;;;;;73.83;37.50;;;12.60;99.90;;;;;;5091459;28;20452;-73
2022/11/09 11:44:09;;;;;;;69.30;38.20;;;12.70;99.90;;;;;;5088375;28;20470;-72
2022/11/09 11:46:57;;;;;;;81.17;39.83;;;12.80;99.90;;;;;;5090395;28;20996;-73
2022/11/09 11:49:48;;;;;;;75.97;38.23;;;12.90;99.90;;;;;;5110106;28;20492;-72
2022/11/09 11:52:33;;;;;;;83.17;39.40;;;12.90;99.90;;;;;;5111601;28;20843;-72
2022/11/09 11:55:18;;;;;;;79.53;36.97;;;13.00;99.90;;;;;;5091611;28;21050;-75
2022/11/09 11:58:03;;;;;;;92.97;42.60;;;13.00;99.90;;;;;;5089701;28;20483;-73
2022/11/09 12:00:37;;;;;;;85.07;39.93;;;13.10;99.90;;;;;;5101735;28;20813;-73
2022/11/09 12:03:24;;;;;;;94.23;50.10;;;13.10;99.90;;;;;;5106436;28;20444;-74
2022/11/09 12:06:09;;;;;;;83.63;40.73;;;13.20;99.90;;;;;;5102126;28;20785;-73
2022/11/09 12:09:02;;;;;;;86.10;41.50;;;13.20;99.90;;;;;;5104892;28;20440;-73
2022/11/09 12:12:01;;;;;;;79.80;38.87;;;13.30;99.90;;;;;;5089121;28;20509;-73
2022/11/09 12:14:45;;;;;;;78.00;39.70;;;13.40;99.90;;;;;;5111396;28;20490;-73
2022/11/09 12:17:31;;;;;;;69.33;39.20;;;13.40;99.90;;;;;;5107269;28;20408;-72
2022/11/09 12:20:12;;;;;;;69.10;35.70;;;13.50;99.90;;;;;;5094212;28;21299;-73
2022/11/09 12:22:41;;;;;;;74.43;39.30;;;13.60;99.90;;;;;;5106147;28;20882;-73
2022/11/09 12:25:33;;;;;;;75.43;39.37;;;13.70;99.90;;;;;;5095007;28;20540;-72
2022/11/09 12:28:18;;;;;;;74.10;39.50;;;13.80;99.90;;;;;;5086481;28;20436;-73
2022/11/09 12:31:02;;;;;;;70.97;37.93;;;13.90;99.90;;;;;;5110043;27;20485;-72
2022/11/09 12:33:38;;;;;;;69.90;39.13;;;13.90;99.90;;;;;;5112015;28;20420;-73
2022/11/09 12:36:21;;;;;;;74.03;37.20;;;14.00;99.90;;;;;;5074217;28;20452;-73
2022/11/09 12:39:19;;;;;;;78.37;38.70;;;14.10;99.90;;;;;;5094541;28;20413;-73
2022/11/09 12:41:47;;;;;;;72.40;37.83;;;14.10;99.90;;;;;;5089503;28;20432;-73
2022/11/09 12:44:25;;;;;;;75.30;39.47;;;14.20;99.90;;;;;;5092388;28;20471;-73
2022/11/09 12:47:16;;;;;;;71.90;37.23;;;14.30;99.90;;;;;;5091997;28;20964;-73
2022/11/09 12:49:44;;;;;;;65.93;38.40;;;14.30;99.90;;;;;;5090502;28;20482;-72